Time;durP1;ratioP1;P1;durP2;ratioP2;P2;SDS_P1;SDS_P2;PMS_P1;PMS_P2;Temp;Humidity;BMP_temperature;BMP_pressure;BME280_temperature;BME280_humidity;BME280_pressure;Samples;Min_cycle;Max_cycle;Signal;HPM_P1;HPM_P2
2024/02/17 00:00:05;;;;;;;83.53;37.70;;;10.40;99.90;;;;;;4937297;28;20110;-69
2024/02/17 00:02:33;;;;;;;90.40;43.17;;;10.40;99.90;;;;;;4964203;28;20099;-68
2024/02/17 00:05:02;;;;;;;84.43;41.40;;;10.40;99.90;;;;;;4944585;28;20082;-68
2024/02/17 00:07:29;;;;;;;87.30;43.80;;;10.40;99.90;;;;;;4935564;28;20047;-68
2024/02/17 00:09:56;;;;;;;90.45;40.50;;;10.40;99.90;;;;;;4936357;28;20415;-68
2024/02/17 00:12:27;;;;;;;89.28;41.97;;;10.40;99.90;;;;;;4944675;28;20047;-68
2024/02/17 00:14:53;;;;;;;92.10;42.75;;;10.40;99.90;;;;;;4949603;28;20057;-68
2024/02/17 00:17:20;;;;;;;97.07;43.95;;;10.40;99.90;;;;;;4945185;28;20051;-69
2024/02/17 00:19:47;;;;;;;104.20;47.15;;;10.40;99.90;;;;;;4945694;28;20073;-68
2024/02/17 00:22:16;;;;;;;99.85;46.50;;;10.40;99.90;;;;;;4959099;28;20476;-69
2024/02/17 00:24:43;;;;;;;103.72;44.70;;;10.40;99.90;;;;;;4952057;28;20043;-69
2024/02/17 00:27:11;;;;;;;100.93;46.35;;;10.40;99.90;;;;;;4967126;28;20039;-68
2024/02/17 00:29:38;;;;;;;102.72;45.10;;;10.40;99.90;;;;;;4948490;28;20070;-68
2024/02/17 00:32:05;;;;;;;96.95;45.85;;;10.40;99.90;;;;;;4927985;28;20057;-69
2024/02/17 00:34:31;;;;;;;108.18;47.58;;;10.40;99.90;;;;;;4931270;28;20051;-69
2024/02/17 00:36:59;;;;;;;112.57;49.45;;;10.30;99.90;;;;;;4932414;28;20050;-69
2024/02/17 00:39:28;;;;;;;109.43;49.08;;;10.30;99.90;;;;;;4926435;28;20039;-69
2024/02/17 00:41:54;;;;;;;120.80;52.05;;;10.40;99.90;;;;;;4943839;28;20042;-69
2024/02/17 00:44:21;;;;;;;106.55;46.60;;;10.40;99.90;;;;;;4953028;28;20083;-69
2024/02/17 00:46:48;;;;;;;117.15;48.33;;;10.30;99.90;;;;;;4942368;28;20047;-69
2024/02/17 00:49:15;;;;;;;115.00;50.40;;;10.30;99.90;;;;;;4935166;28;20063;-69
2024/02/17 00:51:42;;;;;;;107.53;49.53;;;10.30;99.90;;;;;;4941198;28;20047;-69
2024/02/17 00:54:09;;;;;;;115.05;51.17;;;10.30;99.90;;;;;;4938921;28;20070;-69
2024/02/17 00:56:36;;;;;;;109.45;47.85;;;10.30;99.90;;;;;;4937848;28;20051;-69
2024/02/17 00:59:02;;;;;;;110.93;48.65;;;10.20;99.90;;;;;;4937613;28;20066;-69
2024/02/17 01:01:29;;;;;;;120.03;50.00;;;10.20;99.90;;;;;;4938525;28;20044;-70
2024/02/17 01:04:05;;;;;;;114.93;50.83;;;10.20;99.90;;;;;;4948460;28;20055;-70
2024/02/17 01:06:32;;;;;;;113.85;49.80;;;10.20;99.90;;;;;;4943135;28;20130;-70
2024/02/17 01:09:00;;;;;;;113.25;48.38;;;10.20;99.90;;;;;;4943504;28;20079;-70
2024/02/17 01:11:27;;;;;;;117.13;48.40;;;10.20;99.90;;;;;;4948968;28;20133;-68
2024/02/17 01:13:54;;;;;;;117.85;50.72;;;10.20;99.90;;;;;;4945958;28;20551;-70
2024/02/17 01:16:21;;;;;;;123.88;53.45;;;10.20;99.90;;;;;;4942304;28;20047;-68
2024/02/17 01:18:48;;;;;;;109.28;50.63;;;10.20;99.90;;;;;;4930762;28;20126;-68
2024/02/17 01:21:15;;;;;;;117.43;49.90;;;10.20;99.90;;;;;;4940482;28;20039;-68
2024/02/17 01:23:42;;;;;;;116.10;50.47;;;10.20;99.90;;;;;;4946204;28;20058;-71
2024/02/17 01:26:09;;;;;;;107.57;47.03;;;10.10;99.90;;;;;;4943020;28;20035;-70
2024/02/17 01:28:36;;;;;;;107.28;46.90;;;10.10;99.90;;;;;;4948489;28;20050;-70
2024/02/17 01:31:03;;;;;;;98.53;45.80;;;10.10;99.90;;;;;;4940240;28;20054;-71
2024/02/17 01:33:30;;;;;;;111.88;49.60;;;10.10;99.90;;;;;;4928937;28;20553;-70
2024/02/17 01:35:56;;;;;;;104.43;45.53;;;10.10;99.90;;;;;;4956593;28;20070;-69
2024/02/17 01:38:23;;;;;;;104.00;48.67;;;10.10;99.90;;;;;;4952426;28;20047;-70
2024/02/17 01:40:50;;;;;;;110.50;47.05;;;10.10;99.90;;;;;;4958408;28;20055;-70
2024/02/17 01:43:17;;;;;;;98.65;43.67;;;10.10;99.90;;;;;;4944834;28;20044;-71
2024/02/17 01:45:45;;;;;;;103.90;48.03;;;10.10;99.90;;;;;;4927314;28;20044;-70
2024/02/17 01:48:14;;;;;;;101.10;46.45;;;10.10;99.90;;;;;;4921872;28;20043;-69
2024/02/17 01:50:41;;;;;;;108.47;46.85;;;10.10;99.90;;;;;;4936916;28;20045;-70
2024/02/17 01:53:08;;;;;;;96.72;44.50;;;10.10;99.90;;;;;;4944355;28;21536;-70
2024/02/17 01:55:36;;;;;;;96.53;43.00;;;10.00;99.90;;;;;;4941772;28;20064;-69
2024/02/17 01:58:04;;;;;;;99.50;45.55;;;10.00;99.90;;;;;;4928793;28;20590;-69
2024/02/17 02:00:32;;;;;;;106.15;45.40;;;10.00;99.90;;;;;;4926647;28;20132;-68
2024/02/17 02:03:00;;;;;;;101.57;44.95;;;10.00;99.90;;;;;;4928813;28;20748;-68
2024/02/17 02:05:29;;;;;;;104.78;47.03;;;10.00;99.90;;;;;;4927371;28;20078;-68
2024/02/17 02:07:56;;;;;;;101.00;45.00;;;10.00;99.90;;;;;;4930116;28;20044;-68
2024/02/17 02:10:23;;;;;;;97.30;44.78;;;10.00;99.90;;;;;;4926092;28;20047;-68
2024/02/17 02:12:50;;;;;;;100.10;46.60;;;10.00;99.90;;;;;;4947819;28;20073;-69
2024/02/17 02:15:17;;;;;;;104.80;46.63;;;10.00;99.90;;;;;;4950009;28;20047;-69
2024/02/17 02:17:45;;;;;;;96.35;43.80;;;10.00;99.90;;;;;;4942808;28;20501;-68
2024/02/17 02:20:13;;;;;;;99.70;44.28;;;10.00;99.90;;;;;;4944709;28;20575;-68
2024/02/17 02:22:41;;;;;;;104.97;46.40;;;9.90;99.90;;;;;;4947443;28;20053;-68
2024/02/17 02:25:22;;;;;;;97.70;43.63;;;9.90;99.90;;;;;;4944204;28;20058;-68
2024/02/17 02:27:48;;;;;;;93.47;44.40;;;9.90;99.90;;;;;;4944902;28;20051;-69
2024/02/17 02:30:15;;;;;;;90.03;41.97;;;9.90;99.90;;;;;;4941093;28;20051;-68
2024/02/17 02:32:42;;;;;;;101.88;46.63;;;9.90;99.90;;;;;;4946904;28;20130;-68
2024/02/17 02:35:09;;;;;;;105.15;45.30;;;9.90;99.90;;;;;;4948504;28;20105;-68
2024/02/17 02:37:36;;;;;;;94.97;44.45;;;9.80;99.90;;;;;;4946748;28;20055;-68
2024/02/17 02:40:03;;;;;;;99.47;44.13;;;9.80;99.90;;;;;;4943887;28;20046;-69
2024/02/17 02:42:29;;;;;;;104.43;47.08;;;9.80;99.90;;;;;;4943047;28;20039;-69
2024/02/17 02:44:56;;;;;;;109.70;47.83;;;9.80;99.90;;;;;;4948622;28;20153;-69
2024/02/17 02:47:23;;;;;;;108.07;49.45;;;9.80;99.90;;;;;;4923887;28;20051;-70
2024/02/17 02:49:50;;;;;;;104.75;48.47;;;9.70;99.90;;;;;;4928913;28;20071;-70
2024/02/17 02:52:19;;;;;;;111.15;47.33;;;9.80;99.90;;;;;;4923717;28;20071;-68
2024/02/17 02:54:46;;;;;;;93.43;44.80;;;9.80;99.90;;;;;;4948492;28;20055;-69
2024/02/17 02:57:13;;;;;;;114.55;47.83;;;9.80;99.90;;;;;;4924458;28;20054;-68
2024/02/17 02:59:39;;;;;;;99.03;48.67;;;9.80;99.90;;;;;;4921487;28;20047;-68
2024/02/17 03:02:06;;;;;;;94.75;43.38;;;9.80;99.90;;;;;;4920041;28;20523;-70
2024/02/17 03:04:33;;;;;;;105.05;45.85;;;9.80;99.90;;;;;;4925963;28;20066;-69
2024/02/17 03:07:00;;;;;;;94.75;42.70;;;9.70;99.90;;;;;;4942658;28;20058;-69
2024/02/17 03:09:27;;;;;;;102.68;46.28;;;9.70;99.90;;;;;;4942011;28;20117;-70
2024/02/17 03:11:54;;;;;;;106.40;47.67;;;9.70;99.90;;;;;;4941173;28;20146;-69
2024/02/17 03:14:21;;;;;;;99.22;42.92;;;9.70;99.90;;;;;;4944457;28;20053;-70
2024/02/17 03:16:47;;;;;;;106.18;47.70;;;9.70;99.90;;;;;;4946235;28;20744;-70
2024/02/17 03:19:14;;;;;;;99.68;45.65;;;9.80;99.90;;;;;;4941808;28;20046;-70
2024/02/17 03:21:42;;;;;;;94.95;42.33;;;9.70;99.90;;;;;;4948507;28;20039;-70
2024/02/17 03:24:08;;;;;;;99.78;45.58;;;9.70;99.90;;;;;;4944396;28;20102;-69
2024/02/17 03:26:36;;;;;;;112.75;48.25;;;9.70;99.90;;;;;;4932070;28;20123;-70
2024/02/17 03:29:03;;;;;;;106.72;47.17;;;9.70;99.90;;;;;;4925031;28;20139;-70
2024/02/17 03:31:30;;;;;;;106.90;46.55;;;9.70;99.90;;;;;;4923965;28;20051;-70
2024/02/17 03:33:59;;;;;;;99.38;43.03;;;9.70;99.90;;;;;;4933176;28;20063;-70
2024/02/17 03:36:26;;;;;;;105.15;47.15;;;9.70;99.90;;;;;;4923271;28;20098;-69
2024/02/17 03:38:53;;;;;;;113.18;46.70;;;9.70;99.90;;;;;;4946466;28;20161;-69
2024/02/17 03:41:20;;;;;;;115.97;49.63;;;9.70;99.90;;;;;;4925737;28;20544;-69
2024/02/17 03:43:47;;;;;;;116.32;50.03;;;9.70;99.90;;;;;;4921773;28;20047;-69
2024/02/17 03:46:14;;;;;;;119.78;50.42;;;9.70;99.90;;;;;;4920966;28;20135;-69
2024/02/17 03:48:42;;;;;;;115.68;46.60;;;9.60;99.90;;;;;;4925884;28;20105;-70
2024/02/17 03:51:09;;;;;;;127.13;51.20;;;9.60;99.90;;;;;;4922539;28;20138;-70
2024/02/17 03:53:36;;;;;;;131.15;50.85;;;9.60;99.90;;;;;;4924454;28;20110;-70
2024/02/17 03:56:03;;;;;;;132.30;54.13;;;9.60;99.90;;;;;;4921441;28;20043;-70
2024/02/17 03:58:31;;;;;;;135.57;55.45;;;9.60;99.90;;;;;;4926244;28;20679;-68
2024/02/17 04:00:58;;;;;;;120.63;52.08;;;9.60;99.90;;;;;;4923863;28;20055;-69
2024/02/17 04:03:27;;;;;;;120.50;50.13;;;9.60;99.90;;;;;;4925235;28;20171;-68
2024/02/17 04:05:54;;;;;;;128.07;52.08;;;9.60;99.90;;;;;;4952358;28;20566;-68
2024/02/17 04:08:21;;;;;;;126.88;53.38;;;9.60;99.90;;;;;;4944179;28;20064;-70
2024/02/17 04:10:48;;;;;;;122.65;48.80;;;9.60;99.90;;;;;;4940711;28;20058;-68
2024/02/17 04:13:15;;;;;;;123.07;49.80;;;9.50;99.90;;;;;;4963043;28;20570;-70
2024/02/17 04:15:42;;;;;;;136.07;54.50;;;9.50;99.90;;;;;;4943147;28;20605;-70
2024/02/17 04:18:09;;;;;;;147.13;54.45;;;9.60;99.90;;;;;;4943210;28;20050;-70
2024/02/17 04:20:37;;;;;;;133.18;54.08;;;9.60;99.90;;;;;;4942349;28;20050;-70
2024/02/17 04:23:08;;;;;;;139.77;56.53;;;9.60;99.90;;;;;;4946860;28;20031;-70
2024/02/17 04:25:37;;;;;;;125.80;53.47;;;9.60;99.90;;;;;;4943240;28;21532;-70
2024/02/17 04:28:06;;;;;;;142.38;54.55;;;9.60;99.90;;;;;;4946018;28;20510;-68
2024/02/17 04:30:33;;;;;;;129.85;52.88;;;9.60;99.90;;;;;;4939576;28;20054;-70
2024/02/17 04:33:01;;;;;;;144.45;58.45;;;9.50;99.90;;;;;;4947906;28;20423;-70
2024/02/17 04:35:28;;;;;;;141.13;56.17;;;9.50;99.90;;;;;;4944036;28;20055;-69
2024/02/17 04:37:55;;;;;;;130.73;54.25;;;9.50;99.90;;;;;;4937268;28;20702;-69
2024/02/17 04:40:22;;;;;;;142.25;56.03;;;9.50;99.90;;;;;;4943998;28;20546;-68
2024/02/17 04:42:52;;;;;;;152.32;58.47;;;9.50;99.90;;;;;;4926493;28;20586;-68
2024/02/17 04:45:19;;;;;;;131.15;56.45;;;9.60;99.90;;;;;;4928122;28;20051;-68
2024/02/17 04:47:46;;;;;;;161.88;60.67;;;9.60;99.90;;;;;;4943942;28;20540;-68
2024/02/17 04:50:13;;;;;;;151.65;58.70;;;9.60;99.90;;;;;;4945049;28;20043;-68
2024/02/17 04:52:41;;;;;;;155.63;58.50;;;9.60;99.90;;;;;;4943660;28;20466;-68
2024/02/17 04:55:08;;;;;;;155.30;62.15;;;9.60;99.90;;;;;;4947730;28;21320;-69
2024/02/17 04:57:35;;;;;;;161.60;58.15;;;9.50;99.90;;;;;;4945052;28;20141;-68
2024/02/17 05:00:05;;;;;;;148.07;58.42;;;9.50;99.90;;;;;;4943228;28;20031;-69
2024/02/17 05:02:36;;;;;;;162.98;59.17;;;9.50;99.90;;;;;;4946189;28;20066;-68
2024/02/17 05:05:03;;;;;;;147.02;58.70;;;9.50;99.90;;;;;;4944520;28;20043;-68
2024/02/17 05:07:30;;;;;;;144.85;59.42;;;9.50;99.90;;;;;;4949515;28;20039;-68
2024/02/17 05:09:57;;;;;;;146.45;58.70;;;9.50;99.90;;;;;;4949928;28;20138;-68
2024/02/17 05:12:24;;;;;;;161.55;61.90;;;9.50;99.90;;;;;;4929129;28;20047;-68
2024/02/17 05:14:51;;;;;;;178.77;64.85;;;9.50;99.90;;;;;;4926492;28;20043;-69
2024/02/17 05:17:18;;;;;;;165.13;66.18;;;9.50;99.90;;;;;;4946190;28;20055;-68
2024/02/17 05:19:44;;;;;;;183.52;70.78;;;9.50;99.90;;;;;;4965858;28;20070;-69
2024/02/17 05:22:11;;;;;;;172.55;64.97;;;9.50;99.90;;;;;;4977053;28;20047;-68
2024/02/17 05:24:42;;;;;;;170.93;63.03;;;9.50;99.90;;;;;;4962375;28;20119;-70
2024/02/17 05:27:09;;;;;;;181.27;66.97;;;9.50;99.90;;;;;;4945126;28;20074;-69
2024/02/17 05:29:38;;;;;;;159.43;61.17;;;9.50;99.90;;;;;;4949502;28;20671;-69
2024/02/17 05:32:06;;;;;;;164.10;65.85;;;9.50;99.90;;;;;;4950715;28;20050;-69
2024/02/17 05:34:34;;;;;;;163.88;66.40;;;9.50;99.90;;;;;;4944308;28;20047;-69
2024/02/17 05:37:04;;;;;;;163.80;66.95;;;9.50;99.90;;;;;;4970352;28;20638;-69
2024/02/17 05:39:32;;;;;;;156.90;64.28;;;9.40;99.90;;;;;;4944582;28;20173;-69
2024/02/17 05:42:00;;;;;;;170.98;66.90;;;9.40;99.90;;;;;;4951712;28;20132;-69
2024/02/17 05:44:28;;;;;;;160.38;62.17;;;9.30;99.90;;;;;;4949410;28;20142;-69
2024/02/17 05:46:55;;;;;;;151.85;60.05;;;9.30;99.90;;;;;;4950154;28;20130;-69
2024/02/17 05:49:22;;;;;;;179.57;69.57;;;9.30;99.90;;;;;;4945854;28;20050;-69
2024/02/17 05:51:50;;;;;;;180.25;66.43;;;9.40;99.90;;;;;;4933991;28;20047;-68
2024/02/17 05:54:18;;;;;;;168.57;69.57;;;9.40;99.90;;;;;;4939655;28;20146;-68
2024/02/17 05:56:46;;;;;;;194.65;73.07;;;9.40;99.90;;;;;;4925818;28;20496;-68
2024/02/17 05:59:15;;;;;;;188.52;70.68;;;9.40;99.90;;;;;;4924109;28;20054;-70
2024/02/17 06:01:42;;;;;;;182.32;68.55;;;9.40;99.90;;;;;;4930532;28;20137;-69
2024/02/17 06:04:09;;;;;;;181.05;71.03;;;9.40;99.90;;;;;;4927294;28;20139;-69
2024/02/17 06:06:36;;;;;;;175.80;66.65;;;9.40;99.90;;;;;;4935798;28;20110;-69
2024/02/17 06:09:04;;;;;;;183.27;65.03;;;9.40;99.90;;;;;;4945739;28;20082;-70
2024/02/17 06:11:31;;;;;;;190.73;72.15;;;9.40;99.90;;;;;;4933910;28;20154;-69
2024/02/17 06:13:58;;;;;;;195.57;69.88;;;9.40;99.90;;;;;;4935186;28;20035;-69
2024/02/17 06:16:28;;;;;;;186.75;72.70;;;9.40;99.90;;;;;;4943589;28;20065;-70
2024/02/17 06:21:42;;;;;;;205.52;72.07;;;9.40;99.90;;;;;;4948133;28;20687;-69
2024/02/17 06:24:09;;;;;;;214.70;78.25;;;9.30;99.90;;;;;;4942802;28;20047;-68
2024/02/17 06:26:36;;;;;;;204.55;76.43;;;9.40;99.90;;;;;;4935822;28;20047;-70
2024/02/17 06:29:03;;;;;;;196.43;72.65;;;9.40;99.90;;;;;;4923666;28;20051;-71
2024/02/17 06:31:30;;;;;;;199.65;75.63;;;9.40;99.90;;;;;;4932197;28;20134;-70
2024/02/17 06:34:01;;;;;;;182.15;70.85;;;9.40;99.90;;;;;;4922587;28;20701;-69
2024/02/17 06:36:28;;;;;;;191.07;70.60;;;9.30;99.90;;;;;;4928677;28;20546;-69
2024/02/17 06:38:55;;;;;;;197.70;73.60;;;9.30;99.90;;;;;;4928890;28;20075;-70
2024/02/17 06:41:22;;;;;;;224.25;78.22;;;9.30;99.90;;;;;;4945326;28;20641;-69
2024/02/17 06:43:50;;;;;;;222.82;75.28;;;9.30;99.90;;;;;;4946271;28;20050;-69
2024/02/17 06:46:17;;;;;;;230.70;83.20;;;9.30;99.90;;;;;;4959972;28;20131;-69
2024/02/17 06:48:44;;;;;;;220.98;82.05;;;9.30;99.90;;;;;;4948447;28;20057;-69
2024/02/17 06:51:11;;;;;;;266.27;87.25;;;9.30;99.90;;;;;;4955948;28;20047;-69
2024/02/17 06:53:38;;;;;;;230.00;82.28;;;9.30;99.90;;;;;;4930964;28;20062;-70
2024/02/17 06:56:05;;;;;;;229.88;83.20;;;9.30;99.90;;;;;;4940830;28;20042;-70
2024/02/17 06:58:32;;;;;;;247.75;88.30;;;9.30;99.90;;;;;;4940816;28;20047;-70
2024/02/17 07:00:59;;;;;;;253.50;83.88;;;9.40;99.90;;;;;;4949662;28;20062;-70
2024/02/17 07:03:28;;;;;;;268.65;90.43;;;9.40;99.90;;;;;;4961965;28;20054;-69
2024/02/17 07:05:55;;;;;;;273.35;91.88;;;9.40;99.90;;;;;;4949249;28;20688;-69
2024/02/17 07:08:22;;;;;;;253.00;87.05;;;9.30;99.90;;;;;;4945687;28;20523;-70
2024/02/17 07:10:49;;;;;;;264.77;90.35;;;9.40;99.90;;;;;;4947639;28;20062;-70
2024/02/17 07:13:16;;;;;;;263.58;87.82;;;9.30;99.90;;;;;;4947606;28;20787;-70
2024/02/17 07:15:45;;;;;;;264.77;91.45;;;9.30;99.90;;;;;;4939339;28;20039;-70
2024/02/17 07:18:14;;;;;;;267.38;84.65;;;9.30;99.90;;;;;;4924529;28;20062;-70
2024/02/17 07:20:41;;;;;;;274.10;91.15;;;9.30;99.90;;;;;;4927610;28;20057;-70
2024/02/17 07:23:08;;;;;;;289.55;92.72;;;9.30;99.90;;;;;;4966213;28;20039;-70
2024/02/17 07:25:35;;;;;;;275.13;93.53;;;9.30;99.90;;;;;;4939779;28;20068;-70
2024/02/17 07:28:02;;;;;;;251.50;84.78;;;9.30;99.90;;;;;;4934638;28;20054;-71
2024/02/17 07:30:31;;;;;;;291.83;93.47;;;9.30;99.90;;;;;;4929080;28;20151;-70
2024/02/17 07:32:58;;;;;;;311.35;99.68;;;9.30;99.90;;;;;;4934455;28;20046;-71
2024/02/17 07:35:25;;;;;;;318.80;102.20;;;9.30;99.90;;;;;;4944826;28;20043;-71
2024/02/17 07:37:51;;;;;;;295.48;95.22;;;9.30;99.90;;;;;;4949531;28;20536;-70
2024/02/17 07:40:18;;;;;;;303.05;94.78;;;9.30;99.90;;;;;;4943780;28;20080;-70
2024/02/17 07:42:46;;;;;;;288.58;95.85;;;9.30;99.90;;;;;;4926974;28;20514;-70
2024/02/17 07:45:14;;;;;;;303.42;98.53;;;9.20;99.90;;;;;;4928586;28;20043;-70
2024/02/17 07:47:41;;;;;;;325.60;102.95;;;9.20;99.90;;;;;;4921257;28;20071;-70
2024/02/17 07:50:10;;;;;;;334.67;106.72;;;9.20;99.90;;;;;;4929250;28;20043;-71
2024/02/17 07:52:38;;;;;;;367.65;114.35;;;9.30;99.90;;;;;;4947195;28;20042;-73
2024/02/17 07:55:05;;;;;;;355.83;111.22;;;9.30;99.90;;;;;;4951464;28;20050;-71
2024/02/17 07:57:31;;;;;;;341.85;107.40;;;9.30;99.90;;;;;;4946342;28;20046;-69
2024/02/17 07:59:58;;;;;;;376.00;115.00;;;9.30;99.90;;;;;;4959990;28;20054;-71
2024/02/17 08:02:26;;;;;;;354.50;109.70;;;9.30;99.90;;;;;;4926918;28;20047;-69
2024/02/17 08:04:54;;;;;;;369.33;117.05;;;9.30;99.90;;;;;;4924793;28;20046;-69
2024/02/17 08:07:21;;;;;;;335.85;109.38;;;9.30;99.90;;;;;;4934164;28;20056;-69
2024/02/17 08:09:49;;;;;;;369.58;116.25;;;9.30;99.90;;;;;;4927222;28;20051;-73
2024/02/17 08:12:16;;;;;;;351.48;110.30;;;9.30;99.90;;;;;;4948375;28;20070;-73
2024/02/17 08:14:43;;;;;;;343.33;111.78;;;9.30;99.90;;;;;;4946028;28;20054;-74
2024/02/17 08:17:10;;;;;;;304.50;95.95;;;9.30;99.90;;;;;;4929704;28;20431;-72
2024/02/17 08:19:37;;;;;;;250.27;80.57;;;9.30;99.90;;;;;;4928170;28;20673;-71
2024/02/17 08:22:04;;;;;;;258.88;89.28;;;9.30;99.90;;;;;;4945797;28;20043;-73
2024/02/17 08:24:31;;;;;;;265.15;90.18;;;9.30;99.90;;;;;;4961619;28;20043;-72
2024/02/17 08:26:58;;;;;;;241.50;85.82;;;9.30;99.90;;;;;;4942859;28;20650;-72
2024/02/17 08:29:25;;;;;;;233.98;85.53;;;9.30;99.90;;;;;;4949144;28;20142;-72
2024/02/17 08:31:52;;;;;;;246.50;86.97;;;9.30;99.90;;;;;;4947620;28;20531;-72
2024/02/17 08:34:19;;;;;;;247.05;87.25;;;9.30;99.90;;;;;;4927453;28;20058;-72
2024/02/17 08:36:46;;;;;;;272.67;90.75;;;9.30;99.90;;;;;;4958720;28;20053;-72
2024/02/17 08:39:14;;;;;;;264.23;93.28;;;9.30;99.90;;;;;;4947015;28;20102;-72
2024/02/17 08:41:41;;;;;;;236.55;89.15;;;9.30;99.90;;;;;;4948578;28;20138;-72
2024/02/17 08:44:09;;;;;;;252.40;88.05;;;9.30;99.90;;;;;;4946345;28;20050;-72
2024/02/17 08:46:40;;;;;;;250.15;91.35;;;9.40;99.90;;;;;;4935710;28;20051;-72
2024/02/17 08:49:07;;;;;;;203.82;77.25;;;9.40;99.90;;;;;;4925598;28;20047;-72
2024/02/17 08:51:35;;;;;;;167.02;65.28;;;9.40;99.90;;;;;;4944237;28;20087;-72
2024/02/17 08:54:02;;;;;;;180.23;69.60;;;9.30;99.90;;;;;;4955438;28;20102;-72
2024/02/17 08:56:31;;;;;;;168.13;62.95;;;9.40;99.90;;;;;;4949324;28;20047;-72
2024/02/17 08:58:58;;;;;;;162.32;65.10;;;9.40;99.90;;;;;;4949031;28;20782;-73
2024/02/17 09:01:26;;;;;;;159.73;65.57;;;9.40;99.90;;;;;;4961284;28;20636;-72
2024/02/17 09:03:52;;;;;;;160.88;66.63;;;9.50;99.90;;;;;;4954118;28;20146;-72
2024/02/17 09:06:20;;;;;;;168.23;65.72;;;9.60;99.90;;;;;;4951104;28;20071;-71
2024/02/17 09:08:47;;;;;;;150.75;59.05;;;9.60;99.90;;;;;;4951879;28;20102;-73
2024/02/17 09:11:13;;;;;;;131.15;55.53;;;9.60;99.90;;;;;;4937840;28;20051;-75
2024/02/17 09:13:46;;;;;;;128.85;55.08;;;9.50;99.90;;;;;;4921489;28;20043;-73
2024/02/17 09:16:13;;;;;;;134.73;54.10;;;9.60;99.90;;;;;;4942448;28;20051;-73
2024/02/17 09:18:40;;;;;;;133.98;54.90;;;9.70;99.90;;;;;;4968135;28;20059;-73
2024/02/17 09:21:07;;;;;;;122.07;53.88;;;9.80;99.90;;;;;;4953313;28;20035;-73
2024/02/17 09:23:34;;;;;;;133.38;53.92;;;9.90;99.90;;;;;;4953146;28;20046;-73
2024/02/17 09:26:01;;;;;;;117.80;51.88;;;9.90;99.90;;;;;;4966086;28;20050;-73
2024/02/17 09:28:28;;;;;;;114.05;49.95;;;9.90;99.90;;;;;;4948099;28;20051;-73
2024/02/17 09:30:55;;;;;;;110.72;47.90;;;9.80;99.90;;;;;;4946704;28;20125;-71
2024/02/17 09:33:28;;;;;;;110.50;51.63;;;9.80;99.90;;;;;;4949158;28;20059;-72
2024/02/17 09:35:55;;;;;;;76.30;38.20;;;9.90;99.90;;;;;;4943509;28;20055;-72
2024/02/17 09:38:23;;;;;;;88.35;43.13;;;9.80;99.90;;;;;;4935884;28;20047;-72
2024/02/17 09:40:53;;;;;;;87.43;42.13;;;9.90;99.90;;;;;;4934687;28;20050;-70
2024/02/17 09:43:20;;;;;;;88.80;43.28;;;9.90;99.90;;;;;;4948355;28;20080;-73
2024/02/17 09:45:47;;;;;;;78.47;39.15;;;10.00;99.90;;;;;;4945996;28;20043;-71
2024/02/17 09:48:14;;;;;;;71.20;37.42;;;10.10;99.90;;;;;;4947923;28;20043;-71
2024/02/17 09:50:42;;;;;;;72.70;39.53;;;10.10;99.90;;;;;;4945721;28;20110;-71
2024/02/17 09:53:10;;;;;;;78.72;39.47;;;10.20;99.90;;;;;;4933513;28;20103;-70
2024/02/17 09:55:37;;;;;;;78.95;39.00;;;10.20;99.90;;;;;;4930096;28;20047;-74
2024/02/17 09:58:04;;;;;;;78.60;39.88;;;10.30;99.90;;;;;;4953523;28;20054;-72
2024/02/17 10:00:31;;;;;;;80.32;40.63;;;10.30;99.90;;;;;;4956367;28;21269;-73
2024/02/17 10:02:59;;;;;;;80.00;41.22;;;10.30;99.90;;;;;;4955082;28;20692;-73
2024/02/17 10:05:27;;;;;;;72.78;37.78;;;10.20;99.90;;;;;;4959049;28;20149;-73
2024/02/17 10:07:55;;;;;;;74.18;38.13;;;10.40;99.90;;;;;;4925915;28;20051;-73
2024/02/17 10:10:23;;;;;;;68.70;37.47;;;10.50;99.90;;;;;;4934809;28;20624;-73
2024/02/17 10:12:57;;;;;;;76.60;38.53;;;10.40;99.90;;;;;;4932341;28;20066;-73
2024/02/17 10:15:25;;;;;;;74.00;39.15;;;10.50;99.90;;;;;;4930786;28;20053;-73
2024/02/17 10:17:55;;;;;;;72.65;39.00;;;10.60;99.90;;;;;;4949334;28;20137;-73
2024/02/17 10:20:22;;;;;;;74.47;39.08;;;10.80;99.90;;;;;;4937556;28;20058;-73
2024/02/17 10:22:49;;;;;;;70.30;38.42;;;11.00;99.90;;;;;;4941396;28;20050;-74
2024/02/17 10:25:16;;;;;;;59.97;36.42;;;11.00;99.90;;;;;;4930568;28;20483;-74
2024/02/17 10:27:46;;;;;;;59.25;38.33;;;11.10;99.90;;;;;;4964074;28;20043;-73
2024/02/17 10:30:17;;;;;;;69.43;38.65;;;10.90;99.90;;;;;;4946433;28;20035;-73
2024/02/17 10:32:44;;;;;;;69.70;39.63;;;10.80;99.90;;;;;;4952892;28;20092;-73
2024/02/17 10:35:11;;;;;;;63.95;37.70;;;10.90;99.90;;;;;;4949619;28;20043;-74
2024/02/17 10:37:40;;;;;;;62.83;36.75;;;10.80;99.90;;;;;;4947898;28;20054;-74
2024/02/17 10:40:12;;;;;;;59.70;36.28;;;10.80;99.90;;;;;;4950096;28;20089;-73
2024/02/17 10:42:39;;;;;;;59.17;35.60;;;10.70;99.90;;;;;;4953837;28;20078;-73
2024/02/17 10:45:06;;;;;;;59.40;37.03;;;10.70;99.90;;;;;;4947075;28;20047;-74
2024/02/17 10:47:38;;;;;;;60.75;36.03;;;10.80;99.90;;;;;;4939581;28;20510;-74
2024/02/17 10:50:16;;;;;;;56.17;34.45;;;10.90;99.90;;;;;;4927507;28;20106;-73
2024/02/17 10:52:49;;;;;;;58.88;37.67;;;10.90;99.90;;;;;;4953139;28;20551;-74
2024/02/17 10:55:22;;;;;;;59.60;35.65;;;11.00;99.90;;;;;;4958634;28;20050;-73
2024/02/17 10:57:59;;;;;;;50.10;34.85;;;11.20;99.90;;;;;;4962341;28;20051;-74
2024/02/17 11:00:29;;;;;;;47.90;33.53;;;11.20;99.90;;;;;;4972314;28;20629;-74
2024/02/17 11:03:03;;;;;;;54.53;34.63;;;11.30;99.90;;;;;;4950198;28;20035;-73
2024/02/17 11:05:33;;;;;;;59.50;38.17;;;11.40;99.90;;;;;;4958000;28;20059;-76
2024/02/17 11:08:01;;;;;;;54.72;35.60;;;11.30;99.90;;;;;;4956231;28;20042;-74
2024/02/17 11:10:29;;;;;;;53.70;35.72;;;11.30;99.90;;;;;;4950423;28;21743;-74
2024/02/17 11:12:56;;;;;;;52.88;38.15;;;11.50;99.90;;;;;;4954003;28;20039;-73
2024/02/17 11:15:24;;;;;;;54.22;37.45;;;11.60;99.90;;;;;;4953495;28;20051;-74
2024/02/17 11:17:56;;;;;;;51.60;38.90;;;11.60;99.90;;;;;;4961968;28;20107;-74
2024/02/17 11:20:28;;;;;;;46.45;36.67;;;11.40;99.90;;;;;;4945295;28;20533;-73
2024/02/17 11:22:57;;;;;;;55.72;35.75;;;11.40;99.90;;;;;;4943059;28;20045;-73
2024/02/17 11:25:35;;;;;;;53.40;35.97;;;11.40;99.90;;;;;;4945244;28;20046;-73
2024/02/17 11:28:16;;;;;;;53.42;35.80;;;11.50;99.90;;;;;;4956438;28;20051;-73
2024/02/17 11:30:49;;;;;;;51.80;36.72;;;11.30;99.90;;;;;;4956055;28;20043;-73
2024/02/17 11:33:21;;;;;;;55.28;37.78;;;11.40;99.90;;;;;;4947905;28;20134;-73
2024/02/17 11:35:49;;;;;;;50.83;38.17;;;11.40;99.90;;;;;;4950443;28;20046;-74
2024/02/17 11:38:24;;;;;;;57.63;36.90;;;11.40;99.90;;;;;;4944843;28;20050;-73
2024/02/17 11:41:00;;;;;;;55.47;38.70;;;11.30;99.90;;;;;;4946586;28;20763;-73
2024/02/17 11:43:33;;;;;;;57.00;39.10;;;11.30;99.90;;;;;;4947114;28;20043;-73
2024/02/17 11:46:03;;;;;;;54.17;37.33;;;11.40;99.90;;;;;;4936064;28;20098;-73
2024/02/17 11:48:32;;;;;;;46.70;34.45;;;11.50;99.90;;;;;;4926654;28;20047;-73
2024/02/17 11:51:18;;;;;;;50.50;37.85;;;11.70;99.90;;;;;;4929964;28;20054;-73
2024/02/17 11:53:47;;;;;;;52.67;36.65;;;11.80;99.90;;;;;;4951141;28;20043;-71
2024/02/17 11:56:14;;;;;;;46.05;35.50;;;11.90;99.90;;;;;;4945845;28;20041;-70
2024/02/17 11:58:46;;;;;;;51.20;41.10;;;12.00;99.90;;;;;;4926505;28;20062;-71
2024/02/17 12:01:13;;;;;;;51.85;41.13;;;12.20;99.90;;;;;;4946214;28;20055;-71
2024/02/17 12:03:42;;;;;;;51.67;40.72;;;12.40;99.90;;;;;;4956811;28;20734;-71
2024/02/17 12:06:10;;;;;;;49.38;40.00;;;12.20;99.90;;;;;;4946291;28;20053;-72
2024/02/17 12:08:38;;;;;;;45.05;38.83;;;12.00;99.90;;;;;;4940614;28;20031;-71
2024/02/17 12:11:05;;;;;;;48.72;39.20;;;12.00;99.90;;;;;;4941771;28;20046;-72
2024/02/17 12:13:31;;;;;;;48.80;38.47;;;12.20;99.90;;;;;;4949500;28;20051;-73
2024/02/17 12:16:05;;;;;;;51.75;40.90;;;12.30;99.90;;;;;;4945335;28;20045;-73
2024/02/17 12:18:35;;;;;;;48.97;39.40;;;12.20;99.90;;;;;;4943972;28;20051;-73
2024/02/17 12:21:06;;;;;;;48.60;41.85;;;12.40;99.90;;;;;;4965596;28;20046;-73
2024/02/17 12:23:35;;;;;;;49.10;43.97;;;12.30;99.90;;;;;;4942904;28;20046;-73
2024/02/17 12:26:03;;;;;;;50.17;44.63;;;12.20;99.90;;;;;;4931918;28;20043;-71
2024/02/17 12:28:46;;;;;;;48.88;39.95;;;12.30;99.90;;;;;;4946721;28;20062;-71
2024/02/17 12:31:13;;;;;;;49.60;40.78;;;12.30;99.90;;;;;;4939793;28;20807;-71